sensor_id;sensor_type;location;lat;lon;timestamp;pressure;altitude;pressure_sealevel;temperature;humidity
73151;BME280;61354;50.758;6.106;2023-02-08T00:01:06;101352.16;;;-1.80;75.03
73151;BME280;61354;50.758;6.106;2023-02-08T00:03:31;101352.16;;;-1.80;75.88
73151;BME280;61354;50.758;6.106;2023-02-08T00:05:57;101353.59;;;-1.77;75.32
73151;BME280;61354;50.758;6.106;2023-02-08T00:08:22;101340.66;;;-1.82;75.33
73151;BME280;61354;50.758;6.106;2023-02-08T00:10:48;101340.03;;;-1.84;74.72
73151;BME280;61354;50.758;6.106;2023-02-08T00:13:14;101334.59;;;-1.84;75.29
73151;BME280;61354;50.758;6.106;2023-02-08T00:15:41;101326.84;;;-1.87;74.87
73151;BME280;61354;50.758;6.106;2023-02-08T00:18:08;101326.25;;;-1.89;75.79
73151;BME280;61354;50.758;6.106;2023-02-08T00:20:38;101330.47;;;-1.93;76.08
73151;BME280;61354;50.758;6.106;2023-02-08T00:23:04;101326.38;;;-2.02;76.58
73151;BME280;61354;50.758;6.106;2023-02-08T00:25:30;101320.03;;;-1.96;76.64
73151;BME280;61354;50.758;6.106;2023-02-08T00:27:56;101313.34;;;-2.00;76.07
73151;BME280;61354;50.758;6.106;2023-02-08T00:30:21;101312.09;;;-1.97;75.86
73151;BME280;61354;50.758;6.106;2023-02-08T00:32:47;101311.59;;;-1.88;75.18
73151;BME280;61354;50.758;6.106;2023-02-08T00:35:13;101316.59;;;-1.85;74.70
73151;BME280;61354;50.758;6.106;2023-02-08T00:37:38;101313.63;;;-1.83;73.31
73151;BME280;61354;50.758;6.106;2023-02-08T00:40:04;101315.19;;;-1.69;73.44
73151;BME280;61354;50.758;6.106;2023-02-08T00:42:30;101316.47;;;-1.71;72.21
73151;BME280;61354;50.758;6.106;2023-02-08T00:44:56;101319.16;;;-1.90;72.28
73151;BME280;61354;50.758;6.106;2023-02-08T00:47:22;101318.75;;;-1.93;72.15
73151;BME280;61354;50.758;6.106;2023-02-08T00:49:48;101314.16;;;-1.93;72.58
73151;BME280;61354;50.758;6.106;2023-02-08T00:52:13;101323.03;;;-2.04;73.96
73151;BME280;61354;50.758;6.106;2023-02-08T00:54:39;101310.75;;;-2.13;74.88
73151;BME280;61354;50.758;6.106;2023-02-08T00:57:06;101322.06;;;-2.16;73.64
73151;BME280;61354;50.758;6.106;2023-02-08T00:59:32;101314.00;;;-2.30;74.85
73151;BME280;61354;50.758;6.106;2023-02-08T01:01:57;101310.47;;;-2.05;73.55
73151;BME280;61354;50.758;6.106;2023-02-08T01:04:23;101309.59;;;-1.99;73.16
73151;BME280;61354;50.758;6.106;2023-02-08T01:06:48;101312.91;;;-1.97;72.84
73151;BME280;61354;50.758;6.106;2023-02-08T01:09:14;101305.94;;;-1.86;73.41
73151;BME280;61354;50.758;6.106;2023-02-08T01:11:40;101305.47;;;-2.08;74.01
73151;BME280;61354;50.758;6.106;2023-02-08T01:14:05;101305.03;;;-2.05;74.58
73151;BME280;61354;50.758;6.106;2023-02-08T01:16:32;101303.81;;;-2.09;74.45
73151;BME280;61354;50.758;6.106;2023-02-08T01:18:59;101303.91;;;-1.97;74.20
73151;BME280;61354;50.758;6.106;2023-02-08T01:21:33;101301.06;;;-2.09;74.47
73151;BME280;61354;50.758;6.106;2023-02-08T01:23:59;101304.16;;;-1.99;73.58
73151;BME280;61354;50.758;6.106;2023-02-08T01:26:25;101288.19;;;-1.95;72.57
73151;BME280;61354;50.758;6.106;2023-02-08T01:28:52;101300.38;;;-1.98;72.94
73151;BME280;61354;50.758;6.106;2023-02-08T01:31:30;101297.25;;;-2.02;73.17
73151;BME280;61354;50.758;6.106;2023-02-08T01:33:57;101304.69;;;-2.15;73.55
73151;BME280;61354;50.758;6.106;2023-02-08T01:36:25;101294.69;;;-2.21;74.90
73151;BME280;61354;50.758;6.106;2023-02-08T01:38:51;101299.53;;;-2.23;74.58
73151;BME280;61354;50.758;6.106;2023-02-08T01:41:25;101298.06;;;-2.26;74.20
73151;BME280;61354;50.758;6.106;2023-02-08T01:44:08;101295.91;;;-2.17;74.36
73151;BME280;61354;50.758;6.106;2023-02-08T01:46:52;101297.13;;;-2.13;74.09
73151;BME280;61354;50.758;6.106;2023-02-08T01:51:46;101288.19;;;-2.20;75.42
73151;BME280;61354;50.758;6.106;2023-02-08T01:54:16;101296.41;;;-2.27;75.54
73151;BME280;61354;50.758;6.106;2023-02-08T01:56:44;101296.28;;;-2.39;76.00
73151;BME280;61354;50.758;6.106;2023-02-08T01:59:31;101294.88;;;-2.48;76.22
73151;BME280;61354;50.758;6.106;2023-02-08T02:01:58;101290.91;;;-2.52;76.08
73151;BME280;61354;50.758;6.106;2023-02-08T02:04:25;101282.25;;;-2.36;75.05
73151;BME280;61354;50.758;6.106;2023-02-08T02:06:53;101285.16;;;-2.37;74.35
73151;BME280;61354;50.758;6.106;2023-02-08T02:09:35;101281.78;;;-2.33;74.39
73151;BME280;61354;50.758;6.106;2023-02-08T02:12:02;101282.28;;;-2.42;74.30
73151;BME280;61354;50.758;6.106;2023-02-08T02:14:29;101290.16;;;-2.34;73.52
73151;BME280;61354;50.758;6.106;2023-02-08T02:16:58;101290.13;;;-2.28;72.95
73151;BME280;61354;50.758;6.106;2023-02-08T02:19:32;101287.63;;;-2.29;72.62
73151;BME280;61354;50.758;6.106;2023-02-08T02:22:16;101290.63;;;-2.12;71.76
73151;BME280;61354;50.758;6.106;2023-02-08T02:33:41;101294.16;;;-2.37;71.17
73151;BME280;61354;50.758;6.106;2023-02-08T02:38:47;101284.63;;;-2.21;69.71
73151;BME280;61354;50.758;6.106;2023-02-08T02:41:32;101285.06;;;-2.24;69.78
73151;BME280;61354;50.758;6.106;2023-02-08T02:50:22;101279.50;;;-2.36;69.98
73151;BME280;61354;50.758;6.106;2023-02-08T02:52:59;101276.97;;;-2.31;70.28
73151;BME280;61354;50.758;6.106;2023-02-08T02:55:28;101279.31;;;-2.41;71.13
73151;BME280;61354;50.758;6.106;2023-02-08T02:57:59;101272.22;;;-2.42;71.68
73151;BME280;61354;50.758;6.106;2023-02-08T03:00:28;101280.03;;;-2.52;71.93
73151;BME280;61354;50.758;6.106;2023-02-08T03:02:55;101281.63;;;-2.69;72.51
73151;BME280;61354;50.758;6.106;2023-02-08T03:05:24;101273.94;;;-2.47;72.59
73151;BME280;61354;50.758;6.106;2023-02-08T03:13:11;101273.13;;;-2.55;73.03
73151;BME280;61354;50.758;6.106;2023-02-08T03:15:57;101267.00;;;-2.43;71.76
73151;BME280;61354;50.758;6.106;2023-02-08T03:18:34;101266.38;;;-2.45;72.16
73151;BME280;61354;50.758;6.106;2023-02-08T03:23:29;101268.53;;;-2.54;73.55
73151;BME280;61354;50.758;6.106;2023-02-08T03:26:10;101275.28;;;-2.63;73.39
73151;BME280;61354;50.758;6.106;2023-02-08T03:28:45;101268.97;;;-2.57;73.36
73151;BME280;61354;50.758;6.106;2023-02-08T03:34:13;101267.66;;;-2.48;73.20
73151;BME280;61354;50.758;6.106;2023-02-08T03:36:49;101269.31;;;-2.47;73.21
73151;BME280;61354;50.758;6.106;2023-02-08T03:39:22;101262.63;;;-2.44;74.06
73151;BME280;61354;50.758;6.106;2023-02-08T03:41:51;101268.91;;;-2.44;74.04
73151;BME280;61354;50.758;6.106;2023-02-08T03:44:27;101265.22;;;-2.56;74.21
73151;BME280;61354;50.758;6.106;2023-02-08T03:47:01;101263.47;;;-2.44;71.84
73151;BME280;61354;50.758;6.106;2023-02-08T03:49:32;101267.00;;;-2.43;72.50
73151;BME280;61354;50.758;6.106;2023-02-08T03:52:02;101276.00;;;-2.43;73.45
73151;BME280;61354;50.758;6.106;2023-02-08T03:54:30;101271.00;;;-2.46;71.75
73151;BME280;61354;50.758;6.106;2023-02-08T03:57:16;101268.91;;;-2.44;70.30
73151;BME280;61354;50.758;6.106;2023-02-08T03:59:48;101259.72;;;-2.50;67.57
73151;BME280;61354;50.758;6.106;2023-02-08T04:02:20;101262.81;;;-2.46;68.62
73151;BME280;61354;50.758;6.106;2023-02-08T04:04:49;101268.09;;;-2.51;67.82
73151;BME280;61354;50.758;6.106;2023-02-08T04:07:16;101272.00;;;-2.72;68.01
73151;BME280;61354;50.758;6.106;2023-02-08T04:09:43;101264.16;;;-2.55;69.55
73151;BME280;61354;50.758;6.106;2023-02-08T04:12:09;101263.00;;;-2.72;70.86
73151;BME280;61354;50.758;6.106;2023-02-08T04:14:34;101263.81;;;-2.65;70.87
73151;BME280;61354;50.758;6.106;2023-02-08T04:17:00;101275.53;;;-2.65;71.68
73151;BME280;61354;50.758;6.106;2023-02-08T04:19:25;101263.53;;;-2.57;71.94
73151;BME280;61354;50.758;6.106;2023-02-08T04:21:51;101270.25;;;-2.60;72.11
73151;BME280;61354;50.758;6.106;2023-02-08T04:24:17;101268.38;;;-2.66;72.44
73151;BME280;61354;50.758;6.106;2023-02-08T04:26:42;101264.56;;;-2.58;72.65
73151;BME280;61354;50.758;6.106;2023-02-08T04:29:08;101268.59;;;-2.61;72.79
73151;BME280;61354;50.758;6.106;2023-02-08T04:31:33;101269.44;;;-2.67;71.56
73151;BME280;61354;50.758;6.106;2023-02-08T04:33:59;101271.16;;;-2.72;73.00
73151;BME280;61354;50.758;6.106;2023-02-08T04:36:24;101277.41;;;-2.65;73.32
73151;BME280;61354;50.758;6.106;2023-02-08T04:38:50;101285.34;;;-2.70;72.34
73151;BME280;61354;50.758;6.106;2023-02-08T04:41:16;101274.13;;;-2.81;72.76
73151;BME280;61354;50.758;6.106;2023-02-08T04:43:41;101277.03;;;-2.76;72.50
73151;BME280;61354;50.758;6.106;2023-02-08T04:46:07;101279.53;;;-2.74;73.15
73151;BME280;61354;50.758;6.106;2023-02-08T04:48:32;101282.91;;;-2.79;73.18
73151;BME280;61354;50.758;6.106;2023-02-08T04:50:58;101279.56;;;-2.81;72.49
73151;BME280;61354;50.758;6.106;2023-02-08T04:53:24;101279.78;;;-2.82;73.25
73151;BME280;61354;50.758;6.106;2023-02-08T04:55:51;101274.09;;;-2.74;72.83
73151;BME280;61354;50.758;6.106;2023-02-08T04:58:17;101280.19;;;-2.79;72.49
73151;BME280;61354;50.758;6.106;2023-02-08T05:00:43;101291.25;;;-2.73;71.63
73151;BME280;61354;50.758;6.106;2023-02-08T05:03:09;101285.19;;;-2.76;73.19
73151;BME280;61354;50.758;6.106;2023-02-08T05:05:35;101284.59;;;-2.78;72.81
73151;BME280;61354;50.758;6.106;2023-02-08T05:08:00;101280.81;;;-2.77;74.70
73151;BME280;61354;50.758;6.106;2023-02-08T05:10:26;101273.22;;;-2.68;74.29
73151;BME280;61354;50.758;6.106;2023-02-08T05:12:52;101277.66;;;-2.73;75.03
73151;BME280;61354;50.758;6.106;2023-02-08T05:15:17;101272.91;;;-2.85;74.04
73151;BME280;61354;50.758;6.106;2023-02-08T05:17:43;101276.44;;;-2.78;73.80
73151;BME280;61354;50.758;6.106;2023-02-08T05:20:10;101282.47;;;-2.76;74.83
73151;BME280;61354;50.758;6.106;2023-02-08T05:22:35;101289.63;;;-2.81;74.40
73151;BME280;61354;50.758;6.106;2023-02-08T05:25:01;101287.81;;;-3.07;75.06
73151;BME280;61354;50.758;6.106;2023-02-08T05:27:27;101280.91;;;-3.03;75.14
73151;BME280;61354;50.758;6.106;2023-02-08T05:29:52;101287.56;;;-2.86;74.70
73151;BME280;61354;50.758;6.106;2023-02-08T05:32:18;101286.50;;;-2.85;74.80
73151;BME280;61354;50.758;6.106;2023-02-08T05:34:44;101289.69;;;-3.01;74.68
73151;BME280;61354;50.758;6.106;2023-02-08T05:37:09;101285.09;;;-2.94;75.31
73151;BME280;61354;50.758;6.106;2023-02-08T05:39:35;101279.66;;;-2.94;73.04
73151;BME280;61354;50.758;6.106;2023-02-08T05:42:01;101277.09;;;-2.89;72.98
73151;BME280;61354;50.758;6.106;2023-02-08T05:44:26;101289.69;;;-3.01;73.92
73151;BME280;61354;50.758;6.106;2023-02-08T05:46:52;101291.53;;;-2.95;73.13
73151;BME280;61354;50.758;6.106;2023-02-08T05:49:17;101292.59;;;-2.96;72.72
73151;BME280;61354;50.758;6.106;2023-02-08T05:51:43;101287.09;;;-2.83;72.97
73151;BME280;61354;50.758;6.106;2023-02-08T05:54:08;101285.09;;;-2.94;73.98
73151;BME280;61354;50.758;6.106;2023-02-08T05:56:34;101289.63;;;-2.88;73.39
73151;BME280;61354;50.758;6.106;2023-02-08T05:59:00;101291.78;;;-3.03;73.21
73151;BME280;61354;50.758;6.106;2023-02-08T06:01:26;101287.56;;;-2.86;72.21
73151;BME280;61354;50.758;6.106;2023-02-08T06:03:52;101292.13;;;-2.86;72.84
73151;BME280;61354;50.758;6.106;2023-02-08T06:06:19;101288.00;;;-2.95;72.45
73151;BME280;61354;50.758;6.106;2023-02-08T06:08:45;101281.72;;;-2.96;73.43
73151;BME280;61354;50.758;6.106;2023-02-08T06:11:13;101287.22;;;-3.03;72.55
73151;BME280;61354;50.758;6.106;2023-02-08T06:13:39;101290.94;;;-2.97;71.88
73151;BME280;61354;50.758;6.106;2023-02-08T06:16:05;101278.41;;;-2.98;71.42
73151;BME280;61354;50.758;6.106;2023-02-08T06:18:31;101286.75;;;-2.93;70.60
73151;BME280;61354;50.758;6.106;2023-02-08T06:20:56;101281.72;;;-2.89;70.60
73151;BME280;61354;50.758;6.106;2023-02-08T06:23:23;101279.78;;;-2.82;70.12
73151;BME280;61354;50.758;6.106;2023-02-08T06:25:49;101284.59;;;-2.78;68.98
73151;BME280;61354;50.758;6.106;2023-02-08T06:28:15;101287.56;;;-2.92;70.46
73151;BME280;61354;50.758;6.106;2023-02-08T06:30:41;101290.69;;;-2.89;67.12
73151;BME280;61354;50.758;6.106;2023-02-08T06:33:06;101291.69;;;-2.83;69.38
73151;BME280;61354;50.758;6.106;2023-02-08T06:35:32;101301.75;;;-2.84;70.36
73151;BME280;61354;50.758;6.106;2023-02-08T06:37:58;101293.41;;;-2.89;68.97
73151;BME280;61354;50.758;6.106;2023-02-08T06:40:24;101296.97;;;-2.95;68.98
73151;BME280;61354;50.758;6.106;2023-02-08T06:42:50;101302.91;;;-3.11;68.67
73151;BME280;61354;50.758;6.106;2023-02-08T06:45:16;101301.47;;;-3.14;69.97
73151;BME280;61354;50.758;6.106;2023-02-08T06:47:41;101296.31;;;-3.35;70.10
73151;BME280;61354;50.758;6.106;2023-02-08T06:50:08;101291.88;;;-3.23;70.57
73151;BME280;61354;50.758;6.106;2023-02-08T06:52:34;101285.16;;;-3.14;70.88
73151;BME280;61354;50.758;6.106;2023-02-08T06:54:59;101288.03;;;-3.02;67.86
73151;BME280;61354;50.758;6.106;2023-02-08T06:57:25;101294.13;;;-3.13;68.57
73151;BME280;61354;50.758;6.106;2023-02-08T06:59:51;101295.19;;;-3.14;67.80
73151;BME280;61354;50.758;6.106;2023-02-08T07:02:18;101293.13;;;-3.26;69.21
73151;BME280;61354;50.758;6.106;2023-02-08T07:04:45;101298.09;;;-3.16;68.50
73151;BME280;61354;50.758;6.106;2023-02-08T07:07:12;101286.00;;;-3.13;69.31
73151;BME280;61354;50.758;6.106;2023-02-08T07:09:38;101285.63;;;-3.30;68.66
73151;BME280;61354;50.758;6.106;2023-02-08T07:12:04;101286.00;;;-3.13;69.93
73151;BME280;61354;50.758;6.106;2023-02-08T07:14:35;101290.59;;;-3.20;70.68
73151;BME280;61354;50.758;6.106;2023-02-08T07:17:01;101281.63;;;-3.21;69.43
73151;BME280;61354;50.758;6.106;2023-02-08T07:19:27;101278.31;;;-3.23;69.67
73151;BME280;61354;50.758;6.106;2023-02-08T07:21:54;101279.69;;;-3.07;69.70
73151;BME280;61354;50.758;6.106;2023-02-08T07:24:20;101267.38;;;-3.16;69.79
73151;BME280;61354;50.758;6.106;2023-02-08T07:26:46;101273.41;;;-3.01;68.17
73151;BME280;61354;50.758;6.106;2023-02-08T07:29:11;101272.75;;;-3.03;68.69
73151;BME280;61354;50.758;6.106;2023-02-08T07:31:37;101268.81;;;-3.07;67.86
73151;BME280;61354;50.758;6.106;2023-02-08T07:34:02;101270.03;;;-2.96;68.23
73151;BME280;61354;50.758;6.106;2023-02-08T07:36:28;101267.94;;;-2.94;69.18
73151;BME280;61354;50.758;6.106;2023-02-08T07:38:54;101269.00;;;-3.02;69.18
73151;BME280;61354;50.758;6.106;2023-02-08T07:41:19;101279.59;;;-2.87;69.74
73151;BME280;61354;50.758;6.106;2023-02-08T07:43:44;101273.31;;;-2.88;70.50
73151;BME280;61354;50.758;6.106;2023-02-08T07:46:12;101274.38;;;-2.89;70.57
73151;BME280;61354;50.758;6.106;2023-02-08T07:48:38;101279.41;;;-2.86;69.75
73151;BME280;61354;50.758;6.106;2023-02-08T07:51:04;101276.94;;;-2.94;70.47
73151;BME280;61354;50.758;6.106;2023-02-08T07:53:30;101269.56;;;-2.87;69.04
73151;BME280;61354;50.758;6.106;2023-02-08T07:55:56;101269.53;;;-2.80;68.82
73151;BME280;61354;50.758;6.106;2023-02-08T07:58:22;101263.28;;;-2.87;67.99
73151;BME280;61354;50.758;6.106;2023-02-08T08:00:48;101270.78;;;-2.83;66.83
73151;BME280;61354;50.758;6.106;2023-02-08T08:03:14;101264.56;;;-2.58;67.93
73151;BME280;61354;50.758;6.106;2023-02-08T08:05:40;101262.69;;;-2.58;67.55
73151;BME280;61354;50.758;6.106;2023-02-08T08:08:07;101258.03;;;-2.51;69.18
73151;BME280;61354;50.758;6.106;2023-02-08T08:10:32;101259.78;;;-2.56;69.65
73151;BME280;61354;50.758;6.106;2023-02-08T08:12:58;101257.38;;;-2.46;68.31
73151;BME280;61354;50.758;6.106;2023-02-08T08:15:23;101265.72;;;-2.41;67.10
73151;BME280;61354;50.758;6.106;2023-02-08T08:17:49;101264.41;;;-2.32;66.69
73151;BME280;61354;50.758;6.106;2023-02-08T08:20:15;101264.97;;;-2.23;67.70
73151;BME280;61354;50.758;6.106;2023-02-08T08:22:40;101251.09;;;-2.15;68.07
73151;BME280;61354;50.758;6.106;2023-02-08T08:25:06;101263.13;;;-2.04;67.81
73151;BME280;61354;50.758;6.106;2023-02-08T08:27:32;101253.06;;;-2.04;67.10
73151;BME280;61354;50.758;6.106;2023-02-08T08:29:59;101250.59;;;-2.05;67.61
73151;BME280;61354;50.758;6.106;2023-02-08T08:32:25;101258.47;;;-1.97;69.08
73151;BME280;61354;50.758;6.106;2023-02-08T08:34:51;101255.63;;;-1.84;69.66
73151;BME280;61354;50.758;6.106;2023-02-08T08:37:17;101259.03;;;-1.88;68.74
73151;BME280;61354;50.758;6.106;2023-02-08T08:39:42;101264.56;;;-1.77;70.14
73151;BME280;61354;50.758;6.106;2023-02-08T08:42:08;101260.78;;;-1.76;70.25
73151;BME280;61354;50.758;6.106;2023-02-08T08:44:34;101265.50;;;-1.64;69.72
73151;BME280;61354;50.758;6.106;2023-02-08T08:47:00;101260.97;;;-1.52;70.00
73151;BME280;61354;50.758;6.106;2023-02-08T08:49:27;101267.63;;;-1.48;69.01
73151;BME280;61354;50.758;6.106;2023-02-08T08:51:53;101258.72;;;-1.37;69.21
73151;BME280;61354;50.758;6.106;2023-02-08T08:54:20;101254.47;;;-1.33;68.86
73151;BME280;61354;50.758;6.106;2023-02-08T08:56:46;101249.75;;;-1.26;70.25
73151;BME280;61354;50.758;6.106;2023-02-08T08:59:12;101250.97;;;-1.21;69.56
73151;BME280;61354;50.758;6.106;2023-02-08T09:01:37;101235.00;;;-1.18;70.86
73151;BME280;61354;50.758;6.106;2023-02-08T09:04:04;101243.09;;;-1.11;70.42
73151;BME280;61354;50.758;6.106;2023-02-08T09:06:29;101241.09;;;-1.04;70.13
73151;BME280;61354;50.758;6.106;2023-02-08T09:08:55;101239.75;;;-0.95;68.21
73151;BME280;61354;50.758;6.106;2023-02-08T09:11:21;101231.84;;;-0.85;68.70
73151;BME280;61354;50.758;6.106;2023-02-08T09:13:46;101238.03;;;-0.78;67.20
73151;BME280;61354;50.758;6.106;2023-02-08T09:16:16;101237.72;;;-0.69;67.35
73151;BME280;61354;50.758;6.106;2023-02-08T09:18:42;101222.53;;;-0.65;67.53
73151;BME280;61354;50.758;6.106;2023-02-08T09:21:11;101226.34;;;-0.55;60.85
73151;BME280;61354;50.758;6.106;2023-02-08T09:23:37;101234.44;;;-0.48;62.78
73151;BME280;61354;50.758;6.106;2023-02-08T09:26:05;101229.00;;;-0.48;64.82
73151;BME280;61354;50.758;6.106;2023-02-08T09:28:31;101231.84;;;-0.43;61.44
73151;BME280;61354;50.758;6.106;2023-02-08T09:30:57;101229.97;;;-0.31;62.06
73151;BME280;61354;50.758;6.106;2023-02-08T09:33:26;101230.72;;;-0.23;61.14
73151;BME280;61354;50.758;6.106;2023-02-08T09:35:52;101229.75;;;-0.17;60.78
73151;BME280;61354;50.758;6.106;2023-02-08T09:38:18;101237.03;;;-0.11;63.07
73151;BME280;61354;50.758;6.106;2023-02-08T09:43:43;101241.19;;;0.03;62.14
73151;BME280;61354;50.758;6.106;2023-02-08T09:46:21;101232.16;;;0.14;60.02
73151;BME280;61354;50.758;6.106;2023-02-08T09:48:50;101234.75;;;0.33;58.29
73151;BME280;61354;50.758;6.106;2023-02-08T09:51:38;101230.63;;;0.30;59.97
73151;BME280;61354;50.758;6.106;2023-02-08T09:54:10;101230.13;;;0.33;61.34
73151;BME280;61354;50.758;6.106;2023-02-08T09:56:40;101231.44;;;0.42;59.99
73151;BME280;61354;50.758;6.106;2023-02-08T09:59:14;101246.25;;;0.70;55.00
73151;BME280;61354;50.758;6.106;2023-02-08T10:01:40;101240.84;;;0.87;54.13
73151;BME280;61354;50.758;6.106;2023-02-08T10:04:32;101238.72;;;0.89;56.79
73151;BME280;61354;50.758;6.106;2023-02-08T10:07:02;101245.72;;;0.96;55.36
73151;BME280;61354;50.758;6.106;2023-02-08T10:09:27;101246.06;;;1.00;57.46
73151;BME280;61354;50.758;6.106;2023-02-08T10:12:15;101238.53;;;1.07;55.80
73151;BME280;61354;50.758;6.106;2023-02-08T10:14:52;101233.22;;;1.29;53.65
73151;BME280;61354;50.758;6.106;2023-02-08T10:25:45;101228.28;;;1.43;54.16
73151;BME280;61354;50.758;6.106;2023-02-08T10:31:11;101225.31;;;1.78;52.63
73151;BME280;61354;50.758;6.106;2023-02-08T10:36:19;101223.25;;;2.02;51.87
73151;BME280;61354;50.758;6.106;2023-02-08T10:38:48;101220.06;;;2.10;51.64
73151;BME280;61354;50.758;6.106;2023-02-08T10:41:20;101215.09;;;2.24;51.14
73151;BME280;61354;50.758;6.106;2023-02-08T10:43:51;101216.56;;;2.32;50.57
73151;BME280;61354;50.758;6.106;2023-02-08T10:47:13;101217.06;;;2.67;49.06
73151;BME280;61354;50.758;6.106;2023-02-08T10:49:41;101216.88;;;2.74;49.18
73151;BME280;61354;50.758;6.106;2023-02-08T10:52:09;101209.66;;;2.90;47.34
73151;BME280;61354;50.758;6.106;2023-02-08T10:54:35;101205.88;;;2.96;49.40
73151;BME280;61354;50.758;6.106;2023-02-08T10:57:03;101206.84;;;2.85;49.90
73151;BME280;61354;50.758;6.106;2023-02-08T10:59:34;101202.00;;;2.92;51.04
73151;BME280;61354;50.758;6.106;2023-02-08T11:02:01;101200.59;;;3.11;50.10
73151;BME280;61354;50.758;6.106;2023-02-08T11:04:27;101206.25;;;3.05;51.24
73151;BME280;61354;50.758;6.106;2023-02-08T11:06:53;101203.47;;;2.99;52.04
73151;BME280;61354;50.758;6.106;2023-02-08T11:09:28;101198.41;;;3.13;49.86
73151;BME280;61354;50.758;6.106;2023-02-08T11:11:55;101192.19;;;3.23;49.03
73151;BME280;61354;50.758;6.106;2023-02-08T11:14:25;101192.91;;;3.13;50.43
73151;BME280;61354;50.758;6.106;2023-02-08T11:16:55;101190.75;;;3.15;51.88
73151;BME280;61354;50.758;6.106;2023-02-08T11:19:37;101189.25;;;3.30;49.46
73151;BME280;61354;50.758;6.106;2023-02-08T11:22:15;101192.50;;;3.27;49.54
73151;BME280;61354;50.758;6.106;2023-02-08T11:24:43;101187.13;;;3.37;49.21
73151;BME280;61354;50.758;6.106;2023-02-08T11:27:36;101192.63;;;3.37;48.86
73151;BME280;61354;50.758;6.106;2023-02-08T11:30:17;101182.28;;;3.49;50.56
73151;BME280;61354;50.758;6.106;2023-02-08T11:32:45;101187.19;;;3.47;48.64
73151;BME280;61354;50.758;6.106;2023-02-08T11:37:51;101182.34;;;3.54;51.37
73151;BME280;61354;50.758;6.106;2023-02-08T11:40:23;101176.88;;;3.59;50.27
73151;BME280;61354;50.758;6.106;2023-02-08T11:42:50;101178.75;;;3.54;51.52
73151;BME280;61354;50.758;6.106;2023-02-08T11:45:20;101172.22;;;3.60;51.58
73151;BME280;61354;50.758;6.106;2023-02-08T11:47:47;101172.31;;;3.70;52.59
73151;BME280;61354;50.758;6.106;2023-02-08T11:50:26;101173.03;;;3.60;53.32
73151;BME280;61354;50.758;6.106;2023-02-08T11:52:58;101170.38;;;3.70;53.07
73151;BME280;61354;50.758;6.106;2023-02-08T11:55:27;101167.53;;;3.60;53.56
73151;BME280;61354;50.758;6.106;2023-02-08T11:58:01;101162.69;;;3.72;51.98
73151;BME280;61354;50.758;6.106;2023-02-08T12:00:32;101157.75;;;3.69;54.61
73151;BME280;61354;50.758;6.106;2023-02-08T12:03:15;101151.69;;;3.72;53.15
73151;BME280;61354;50.758;6.106;2023-02-08T12:13:55;101133.56;;;3.71;55.89
73151;BME280;61354;50.758;6.106;2023-02-08T12:21:44;101126.56;;;3.91;55.04
73151;BME280;61354;50.758;6.106;2023-02-08T12:27:13;101115.00;;;3.89;54.46
73151;BME280;61354;50.758;6.106;2023-02-08T12:35:53;101106.22;;;3.92;54.36
73151;BME280;61354;50.758;6.106;2023-02-08T12:44:05;101089.25;;;4.05;51.89
73151;BME280;61354;50.758;6.106;2023-02-08T12:49:34;101083.84;;;4.20;51.36
73151;BME280;61354;50.758;6.106;2023-02-08T12:54:54;101074.31;;;4.43;49.78
73151;BME280;61354;50.758;6.106;2023-02-08T12:57:23;101069.63;;;4.39;51.94
73151;BME280;61354;50.758;6.106;2023-02-08T13:00:02;101075.47;;;4.58;49.88
73151;BME280;61354;50.758;6.106;2023-02-08T13:05:14;101072.72;;;4.63;50.17
73151;BME280;61354;50.758;6.106;2023-02-08T13:07:42;101068.09;;;4.73;50.10
73151;BME280;61354;50.758;6.106;2023-02-08T13:10:23;101059.25;;;4.56;50.24
73151;BME280;61354;50.758;6.106;2023-02-08T13:12:56;101056.78;;;4.75;50.01
73151;BME280;61354;50.758;6.106;2023-02-08T13:15:26;101052.09;;;4.65;51.47
73151;BME280;61354;50.758;6.106;2023-02-08T13:22:59;101041.97;;;4.91;50.24
73151;BME280;61354;50.758;6.106;2023-02-08T13:25:30;101043.88;;;4.96;49.42
73151;BME280;61354;50.758;6.106;2023-02-08T13:28:05;101031.50;;;4.98;48.77
73151;BME280;61354;50.758;6.106;2023-02-08T13:30:35;101036.16;;;4.88;50.24
73151;BME280;61354;50.758;6.106;2023-02-08T13:33:15;101033.97;;;4.80;50.69
73151;BME280;61354;50.758;6.106;2023-02-08T13:35:48;101036.16;;;4.88;49.60
73151;BME280;61354;50.758;6.106;2023-02-08T13:38:33;101023.50;;;4.92;50.48
73151;BME280;61354;50.758;6.106;2023-02-08T13:41:05;101014.19;;;4.98;49.77
73151;BME280;61354;50.758;6.106;2023-02-08T13:52:06;101002.06;;;4.94;47.90
73151;BME280;61354;50.758;6.106;2023-02-08T13:54:32;101004.25;;;4.97;49.04
73151;BME280;61354;50.758;6.106;2023-02-08T13:56:58;101001.47;;;4.97;49.06
73151;BME280;61354;50.758;6.106;2023-02-08T13:59:38;100996.53;;;4.84;49.85
73151;BME280;61354;50.758;6.106;2023-02-08T14:04:40;100997.09;;;4.91;49.01
73151;BME280;61354;50.758;6.106;2023-02-08T14:10:01;100998.75;;;4.82;49.63
73151;BME280;61354;50.758;6.106;2023-02-08T14:17:43;100984.69;;;4.83;49.05
73151;BME280;61354;50.758;6.106;2023-02-08T14:20:17;100987.16;;;4.80;48.57
73151;BME280;61354;50.758;6.106;2023-02-08T14:22:55;100979.72;;;4.80;49.34
73151;BME280;61354;50.758;6.106;2023-02-08T14:25:24;100985.81;;;4.82;49.17
73151;BME280;61354;50.758;6.106;2023-02-08T14:27:59;100985.25;;;4.80;49.63
73151;BME280;61354;50.758;6.106;2023-02-08T14:30:28;100979.19;;;4.83;49.07
73151;BME280;61354;50.758;6.106;2023-02-08T14:35:32;100973.97;;;4.82;49.78
73151;BME280;61354;50.758;6.106;2023-02-08T14:45:49;100959.94;;;4.78;50.82
73151;BME280;61354;50.758;6.106;2023-02-08T14:58:52;100953.59;;;4.72;50.94
73151;BME280;61354;50.758;6.106;2023-02-08T15:01:24;100946.72;;;4.70;50.05
73151;BME280;61354;50.758;6.106;2023-02-08T15:03:58;100942.59;;;4.67;50.51
73151;BME280;61354;50.758;6.106;2023-02-08T15:08:56;100940.09;;;4.71;50.37
73151;BME280;61354;50.758;6.106;2023-02-08T15:11:25;100937.91;;;4.63;50.75
73151;BME280;61354;50.758;6.106;2023-02-08T15:13:53;100939.28;;;4.65;49.83
73151;BME280;61354;50.758;6.106;2023-02-08T15:16:20;100935.97;;;4.63;50.93